sensor_id;sensor_type;location;lat;lon;timestamp;pressure;altitude;pressure_sealevel;temperature;humidity
27980;BME280;15315;50.836;4.430;2023-04-15T00:05:12;100147.03;;;15.06;63.85
27980;BME280;15315;50.836;4.430;2023-04-15T00:15:12;100140.53;;;15.16;62.94
27980;BME280;15315;50.836;4.430;2023-04-15T00:25:12;100145.47;;;15.30;63.80
27980;BME280;15315;50.836;4.430;2023-04-15T00:35:14;100144.38;;;15.23;65.50
27980;BME280;15315;50.836;4.430;2023-04-15T00:45:14;100145.38;;;15.22;66.54
27980;BME280;15315;50.836;4.430;2023-04-15T00:55:15;100145.66;;;14.92;69.71
27980;BME280;15315;50.836;4.430;2023-04-15T01:05:16;100150.38;;;14.53;73.61
27980;BME280;15315;50.836;4.430;2023-04-15T01:15:17;100147.88;;;15.06;72.40
27980;BME280;15315;50.836;4.430;2023-04-15T01:25:19;100135.56;;;15.12;73.85
27980;BME280;15315;50.836;4.430;2023-04-15T01:35:21;100134.47;;;15.05;75.83
27980;BME280;15315;50.836;4.430;2023-04-15T01:45:23;100145.56;;;14.84;81.19
27980;BME280;15315;50.836;4.430;2023-04-15T01:55:23;100131.50;;;15.25;76.95
27980;BME280;15315;50.836;4.430;2023-04-15T02:05:24;100120.13;;;15.12;73.61
27980;BME280;15315;50.836;4.430;2023-04-15T02:15:24;100134.00;;;15.09;78.69
27980;BME280;15315;50.836;4.430;2023-04-15T02:25:25;100130.53;;;15.17;77.85
27980;BME280;15315;50.836;4.430;2023-04-15T02:35:25;100136.72;;;15.09;78.22
27980;BME280;15315;50.836;4.430;2023-04-15T02:45:26;100142.03;;;15.38;75.73
27980;BME280;15315;50.836;4.430;2023-04-15T02:55:27;100168.13;;;15.21;77.65
27980;BME280;15315;50.836;4.430;2023-04-15T03:05:28;100173.44;;;14.76;83.00
27980;BME280;15315;50.836;4.430;2023-04-15T03:15:28;100177.38;;;14.26;85.48
27980;BME280;15315;50.836;4.430;2023-04-15T03:25:29;100200.78;;;13.98;91.79
27980;BME280;15315;50.836;4.430;2023-04-15T03:35:29;100208.91;;;14.17;91.04
27980;BME280;15315;50.836;4.430;2023-04-15T03:45:30;100222.75;;;13.46;91.88
27980;BME280;15315;50.836;4.430;2023-04-15T03:55:30;100228.88;;;13.97;94.85
27980;BME280;15315;50.836;4.430;2023-04-15T04:05:31;100234.28;;;13.97;89.25
27980;BME280;15315;50.836;4.430;2023-04-15T04:15:31;100241.75;;;14.24;86.07
27980;BME280;15315;50.836;4.430;2023-04-15T04:25:31;100245.28;;;14.24;84.46
27980;BME280;15315;50.836;4.430;2023-04-15T04:35:32;100249.63;;;13.58;90.80
27980;BME280;15315;50.836;4.430;2023-04-15T04:45:34;100262.59;;;13.55;95.40
27980;BME280;15315;50.836;4.430;2023-04-15T04:55:34;100275.97;;;12.96;100.00
27980;BME280;15315;50.836;4.430;2023-04-15T05:05:36;100283.97;;;13.58;97.29
27980;BME280;15315;50.836;4.430;2023-04-15T05:15:38;100307.63;;;14.05;92.66
27980;BME280;15315;50.836;4.430;2023-04-15T05:25:40;100310.50;;;14.33;89.44
27980;BME280;15315;50.836;4.430;2023-04-15T05:35:40;100332.47;;;14.30;89.05
27980;BME280;15315;50.836;4.430;2023-04-15T05:45:41;100358.59;;;14.31;89.52
27980;BME280;15315;50.836;4.430;2023-04-15T05:55:41;100390.41;;;13.08;94.35
27980;BME280;15315;50.836;4.430;2023-04-15T06:05:42;100402.44;;;12.62;98.83
27980;BME280;15315;50.836;4.430;2023-04-15T06:15:43;100409.88;;;13.22;90.71
27980;BME280;15315;50.836;4.430;2023-04-15T06:25:44;100417.19;;;14.03;84.66
27980;BME280;15315;50.836;4.430;2023-04-15T06:35:44;100439.63;;;12.81;91.88
27980;BME280;15315;50.836;4.430;2023-04-15T06:45:45;100436.97;;;14.34;82.44
27980;BME280;15315;50.836;4.430;2023-04-15T06:55:46;100451.78;;;14.69;78.18
27980;BME280;15315;50.836;4.430;2023-04-15T07:05:46;100460.91;;;14.68;77.16
27980;BME280;15315;50.836;4.430;2023-04-15T07:15:47;100459.06;;;14.78;75.44
27980;BME280;15315;50.836;4.430;2023-04-15T07:25:47;100488.72;;;14.51;71.13
27980;BME280;15315;50.836;4.430;2023-04-15T07:35:48;100507.03;;;14.29;73.03
27980;BME280;15315;50.836;4.430;2023-04-15T07:45:49;100541.66;;;11.90;78.49
27980;BME280;15315;50.836;4.430;2023-04-15T07:55:49;100552.97;;;13.27;77.09
27980;BME280;15315;50.836;4.430;2023-04-15T08:05:49;100568.63;;;13.12;76.06
27980;BME280;15315;50.836;4.430;2023-04-15T08:16:12;100590.19;;;13.14;73.73
27980;BME280;15315;50.836;4.430;2023-04-15T08:26:12;100583.22;;;13.64;71.46
27980;BME280;15315;50.836;4.430;2023-04-15T08:36:14;100595.09;;;13.51;70.67
27980;BME280;15315;50.836;4.430;2023-04-15T08:46:15;100612.81;;;15.77;66.26
27980;BME280;15315;50.836;4.430;2023-04-15T08:56:15;100632.56;;;15.79;64.23
27980;BME280;15315;50.836;4.430;2023-04-15T09:06:17;100639.44;;;15.92;62.02
27980;BME280;15315;50.836;4.430;2023-04-15T09:16:17;100657.75;;;15.71;61.19
27980;BME280;15315;50.836;4.430;2023-04-15T09:26:18;100681.50;;;15.60;57.79
27980;BME280;15315;50.836;4.430;2023-04-15T09:36:19;100706.50;;;15.54;55.49
27980;BME280;15315;50.836;4.430;2023-04-15T09:46:19;100736.44;;;15.92;54.33
27980;BME280;15315;50.836;4.430;2023-04-15T09:56:21;100741.47;;;15.37;55.41
27980;BME280;15315;50.836;4.430;2023-04-15T10:06:22;100761.72;;;15.64;54.93
27980;BME280;15315;50.836;4.430;2023-04-15T10:16:26;100778.97;;;15.43;54.48
27980;BME280;15315;50.836;4.430;2023-04-15T10:26:29;100775.94;;;15.96;53.26
27980;BME280;15315;50.836;4.430;2023-04-15T10:36:30;100787.75;;;15.66;53.91
27980;BME280;15315;50.836;4.430;2023-04-15T10:46:42;100802.03;;;16.75;52.74
27980;BME280;15315;50.836;4.430;2023-04-15T10:56:44;100814.94;;;16.73;50.10
27980;BME280;15315;50.836;4.430;2023-04-15T11:06:44;100826.75;;;17.29;44.90
27980;BME280;15315;50.836;4.430;2023-04-15T11:16:45;100837.59;;;16.45;40.76
27980;BME280;15315;50.836;4.430;2023-04-15T11:26:45;100842.59;;;16.49;42.11
27980;BME280;15315;50.836;4.430;2023-04-15T11:36:46;100865.50;;;15.88;42.20
27980;BME280;15315;50.836;4.430;2023-04-15T11:46:47;100868.75;;;16.22;38.77
27980;BME280;15315;50.836;4.430;2023-04-15T11:56:51;100880.56;;;16.60;39.43
27980;BME280;15315;50.836;4.430;2023-04-15T12:06:52;100894.88;;;15.94;40.39
27980;BME280;15315;50.836;4.430;2023-04-15T12:16:57;100914.06;;;15.92;39.85
27980;BME280;15315;50.836;4.430;2023-04-15T12:37:06;100949.75;;;16.39;37.02
27980;BME280;15315;50.836;4.430;2023-04-15T12:47:07;100957.44;;;17.12;37.64
27980;BME280;15315;50.836;4.430;2023-04-15T12:57:08;100968.88;;;16.87;38.43
27980;BME280;15315;50.836;4.430;2023-04-15T13:07:09;100981.41;;;17.93;37.25
27980;BME280;15315;50.836;4.430;2023-04-15T13:17:09;101003.66;;;16.24;36.35
27980;BME280;15315;50.836;4.430;2023-04-15T13:27:10;100996.13;;;17.35;37.03
27980;BME280;15315;50.836;4.430;2023-04-15T13:37:11;101002.72;;;17.61;38.34
27980;BME280;15315;50.836;4.430;2023-04-15T13:47:11;101015.09;;;18.11;39.63
27980;BME280;15315;50.836;4.430;2023-04-15T13:57:13;101039.00;;;17.71;38.47
27980;BME280;15315;50.836;4.430;2023-04-15T14:07:14;101045.19;;;17.54;37.82
27980;BME280;15315;50.836;4.430;2023-04-15T14:17:15;101064.72;;;17.20;39.41
27980;BME280;15315;50.836;4.430;2023-04-15T14:27:15;101071.31;;;17.66;40.75
27980;BME280;15315;50.836;4.430;2023-04-15T14:37:16;101087.22;;;17.61;38.91
27980;BME280;15315;50.836;4.430;2023-04-15T14:47:16;101105.00;;;17.17;38.33
27980;BME280;15315;50.836;4.430;2023-04-15T14:57:17;101112.34;;;17.55;39.32
27980;BME280;15315;50.836;4.430;2023-04-15T15:07:17;101121.66;;;19.47;38.86
27980;BME280;15315;50.836;4.430;2023-04-15T15:17:18;101121.34;;;18.22;41.91
27980;BME280;15315;50.836;4.430;2023-04-15T15:27:18;101141.91;;;19.00;42.39
27980;BME280;15315;50.836;4.430;2023-04-15T15:37:18;101163.72;;;17.78;43.28
27980;BME280;15315;50.836;4.430;2023-04-15T15:47:20;101173.94;;;17.86;43.06
27980;BME280;15315;50.836;4.430;2023-04-15T15:57:21;101181.09;;;17.77;45.41
27980;BME280;15315;50.836;4.430;2023-04-15T16:07:21;101200.19;;;16.58;54.63
27980;BME280;15315;50.836;4.430;2023-04-15T16:17:22;101214.31;;;16.73;56.69
27980;BME280;15315;50.836;4.430;2023-04-15T16:27:22;101235.06;;;16.43;55.94
27980;BME280;15315;50.836;4.430;2023-04-15T16:37:22;101251.16;;;17.77;51.94
27980;BME280;15315;50.836;4.430;2023-04-15T16:47:23;101261.81;;;18.76;46.92
27980;BME280;15315;50.836;4.430;2023-04-15T16:57:23;101284.09;;;17.15;46.36
27980;BME280;15315;50.836;4.430;2023-04-15T17:07:24;101311.81;;;16.58;47.80
27980;BME280;15315;50.836;4.430;2023-04-15T17:17:24;101297.75;;;19.17;43.83
27980;BME280;15315;50.836;4.430;2023-04-15T17:27:25;101292.84;;;20.48;42.16
27980;BME280;15315;50.836;4.430;2023-04-15T17:37:27;101331.72;;;19.61;44.85
27980;BME280;15315;50.836;4.430;2023-04-15T17:47:28;101339.69;;;17.73;51.28
27980;BME280;15315;50.836;4.430;2023-04-15T17:57:28;101364.53;;;14.92;60.50
27980;BME280;15315;50.836;4.430;2023-04-15T18:07:29;101368.91;;;14.71;63.85
27980;BME280;15315;50.836;4.430;2023-04-15T18:17:30;101393.47;;;14.69;66.93
27980;BME280;15315;50.836;4.430;2023-04-15T18:27:30;101400.66;;;14.10;71.48
27980;BME280;15315;50.836;4.430;2023-04-15T18:37:32;101430.66;;;13.71;76.00
27980;BME280;15315;50.836;4.430;2023-04-15T18:47:32;101451.97;;;13.25;79.30
27980;BME280;15315;50.836;4.430;2023-04-15T18:57:32;101476.81;;;12.80;80.80
27980;BME280;15315;50.836;4.430;2023-04-15T19:07:34;101488.59;;;13.18;80.20
27980;BME280;15315;50.836;4.430;2023-04-15T19:17:34;101507.16;;;12.97;80.84
27980;BME280;15315;50.836;4.430;2023-04-15T19:27:35;101527.91;;;13.76;74.42
27980;BME280;15315;50.836;4.430;2023-04-15T19:37:37;101539.38;;;13.15;79.18
27980;BME280;15315;50.836;4.430;2023-04-15T19:47:37;101557.59;;;11.89;90.02
27980;BME280;15315;50.836;4.430;2023-04-15T19:57:38;101567.81;;;11.84;88.87
27980;BME280;15315;50.836;4.430;2023-04-15T20:07:38;101573.63;;;11.92;90.93
27980;BME280;15315;50.836;4.430;2023-04-15T20:17:41;101595.91;;;11.36;97.66
27980;BME280;15315;50.836;4.430;2023-04-15T20:27:41;101599.66;;;11.93;93.51
27980;BME280;15315;50.836;4.430;2023-04-15T20:37:42;101608.47;;;10.60;100.00
27980;BME280;15315;50.836;4.430;2023-04-15T20:47:44;101616.56;;;10.76;100.00
27980;BME280;15315;50.836;4.430;2023-04-15T20:57:44;101620.47;;;10.22;100.00
27980;BME280;15315;50.836;4.430;2023-04-15T21:07:45;101627.19;;;11.55;99.00
27980;BME280;15315;50.836;4.430;2023-04-15T21:17:45;101638.91;;;11.09;100.00
27980;BME280;15315;50.836;4.430;2023-04-15T21:27:45;101646.91;;;10.95;100.00
27980;BME280;15315;50.836;4.430;2023-04-15T21:37:46;101662.03;;;11.74;94.53
27980;BME280;15315;50.836;4.430;2023-04-15T21:47:46;101674.22;;;11.51;96.22
27980;BME280;15315;50.836;4.430;2023-04-15T21:57:46;101678.22;;;11.44;96.76
27980;BME280;15315;50.836;4.430;2023-04-15T22:07:47;101683.84;;;12.01;90.76
27980;BME280;15315;50.836;4.430;2023-04-15T22:17:47;101703.72;;;10.61;100.00
27980;BME280;15315;50.836;4.430;2023-04-15T22:27:47;101708.47;;;9.71;100.00
27980;BME280;15315;50.836;4.430;2023-04-15T22:37:48;101730.25;;;9.12;100.00
27980;BME280;15315;50.836;4.430;2023-04-15T22:47:48;101737.59;;;9.98;100.00
27980;BME280;15315;50.836;4.430;2023-04-15T22:57:49;101752.59;;;9.86;100.00
27980;BME280;15315;50.836;4.430;2023-04-15T23:07:49;101750.94;;;11.16;100.00
27980;BME280;15315;50.836;4.430;2023-04-15T23:17:49;101754.06;;;11.08;100.00
27980;BME280;15315;50.836;4.430;2023-04-15T23:27:50;101745.56;;;11.16;100.00
27980;BME280;15315;50.836;4.430;2023-04-15T23:37:50;101762.34;;;11.21;100.00
27980;BME280;15315;50.836;4.430;2023-04-15T23:47:51;101770.03;;;10.47;100.00
27980;BME280;15315;50.836;4.430;2023-04-15T23:57:51;101757.50;;;10.12;100.00
